sensor_id;sensor_type;location;lat;lon;timestamp;P1;durP1;ratioP1;P2;durP2;ratioP2
62903;SDS011;49000;50.698;13.322;2023-05-14T00:01:03;5.80;;;5.20;;
62903;SDS011;49000;50.698;13.322;2023-05-14T00:03:28;5.47;;;4.70;;
62903;SDS011;49000;50.698;13.322;2023-05-14T00:05:54;8.57;;;5.00;;
62903;SDS011;49000;50.698;13.322;2023-05-14T00:08:19;5.53;;;5.03;;
62903;SDS011;49000;50.698;13.322;2023-05-14T00:10:45;6.20;;;5.10;;
62903;SDS011;49000;50.698;13.322;2023-05-14T00:13:10;6.10;;;5.50;;
62903;SDS011;49000;50.698;13.322;2023-05-14T00:15:36;6.40;;;5.80;;
62903;SDS011;49000;50.698;13.322;2023-05-14T00:18:01;6.10;;;5.30;;
62903;SDS011;49000;50.698;13.322;2023-05-14T00:20:27;6.70;;;5.37;;
62903;SDS011;49000;50.698;13.322;2023-05-14T00:22:52;6.70;;;5.30;;
62903;SDS011;49000;50.698;13.322;2023-05-14T00:25:18;7.13;;;5.23;;
62903;SDS011;49000;50.698;13.322;2023-05-14T00:27:43;5.37;;;4.87;;
62903;SDS011;49000;50.698;13.322;2023-05-14T00:30:09;5.67;;;5.07;;
62903;SDS011;49000;50.698;13.322;2023-05-14T00:32:35;5.73;;;4.63;;
62903;SDS011;49000;50.698;13.322;2023-05-14T00:35:00;6.70;;;5.43;;
62903;SDS011;49000;50.698;13.322;2023-05-14T00:37:28;7.27;;;5.23;;
62903;SDS011;49000;50.698;13.322;2023-05-14T00:39:53;5.80;;;5.20;;
62903;SDS011;49000;50.698;13.322;2023-05-14T00:42:19;5.90;;;5.30;;
62903;SDS011;49000;50.698;13.322;2023-05-14T00:44:44;6.17;;;5.33;;
62903;SDS011;49000;50.698;13.322;2023-05-14T00:47:10;6.30;;;5.63;;
62903;SDS011;49000;50.698;13.322;2023-05-14T00:49:36;7.73;;;4.77;;
62903;SDS011;49000;50.698;13.322;2023-05-14T00:52:03;6.87;;;5.37;;
62903;SDS011;49000;50.698;13.322;2023-05-14T00:54:29;8.13;;;5.83;;
62903;SDS011;49000;50.698;13.322;2023-05-14T00:56:55;5.70;;;5.10;;
62903;SDS011;49000;50.698;13.322;2023-05-14T00:59:21;5.90;;;5.13;;
62903;SDS011;49000;50.698;13.322;2023-05-14T01:01:47;6.30;;;4.60;;
62903;SDS011;49000;50.698;13.322;2023-05-14T01:04:12;8.20;;;5.23;;
62903;SDS011;49000;50.698;13.322;2023-05-14T01:09:31;5.63;;;5.00;;
62903;SDS011;49000;50.698;13.322;2023-05-14T01:15:20;5.23;;;4.73;;
62903;SDS011;49000;50.698;13.322;2023-05-14T01:17:51;6.23;;;4.80;;
62903;SDS011;49000;50.698;13.322;2023-05-14T01:20:19;6.10;;;5.33;;
62903;SDS011;49000;50.698;13.322;2023-05-14T01:22:45;6.30;;;5.13;;
62903;SDS011;49000;50.698;13.322;2023-05-14T01:25:11;5.70;;;5.10;;
62903;SDS011;49000;50.698;13.322;2023-05-14T01:30:05;8.57;;;5.13;;
62903;SDS011;49000;50.698;13.322;2023-05-14T01:32:40;6.57;;;5.80;;
62903;SDS011;49000;50.698;13.322;2023-05-14T01:35:11;5.73;;;5.10;;
62903;SDS011;49000;50.698;13.322;2023-05-14T01:37:36;5.60;;;5.03;;
62903;SDS011;49000;50.698;13.322;2023-05-14T01:40:04;6.20;;;5.30;;
62903;SDS011;49000;50.698;13.322;2023-05-14T01:42:32;6.83;;;5.03;;
62903;SDS011;49000;50.698;13.322;2023-05-14T01:44:58;7.30;;;5.13;;
62903;SDS011;49000;50.698;13.322;2023-05-14T01:47:23;5.43;;;4.93;;
62903;SDS011;49000;50.698;13.322;2023-05-14T01:49:49;6.20;;;5.13;;
62903;SDS011;49000;50.698;13.322;2023-05-14T01:52:15;5.37;;;4.77;;
62903;SDS011;49000;50.698;13.322;2023-05-14T01:54:44;5.80;;;5.13;;
62903;SDS011;49000;50.698;13.322;2023-05-14T01:57:10;5.47;;;4.87;;
62903;SDS011;49000;50.698;13.322;2023-05-14T01:59:36;6.13;;;5.27;;
62903;SDS011;49000;50.698;13.322;2023-05-14T02:02:01;6.80;;;5.40;;
62903;SDS011;49000;50.698;13.322;2023-05-14T02:04:26;4.83;;;4.27;;
62903;SDS011;49000;50.698;13.322;2023-05-14T02:06:52;5.93;;;4.97;;
62903;SDS011;49000;50.698;13.322;2023-05-14T02:09:17;5.90;;;4.80;;
62903;SDS011;49000;50.698;13.322;2023-05-14T02:11:43;6.47;;;5.60;;
62903;SDS011;49000;50.698;13.322;2023-05-14T02:14:08;7.20;;;5.37;;
62903;SDS011;49000;50.698;13.322;2023-05-14T02:16:34;6.83;;;5.67;;
62903;SDS011;49000;50.698;13.322;2023-05-14T02:19:00;5.47;;;4.87;;
62903;SDS011;49000;50.698;13.322;2023-05-14T02:21:25;6.93;;;5.70;;
62903;SDS011;49000;50.698;13.322;2023-05-14T02:23:51;5.87;;;5.23;;
62903;SDS011;49000;50.698;13.322;2023-05-14T02:26:16;7.23;;;5.70;;
62903;SDS011;49000;50.698;13.322;2023-05-14T02:28:42;7.40;;;5.57;;
62903;SDS011;49000;50.698;13.322;2023-05-14T02:31:07;6.57;;;5.80;;
62903;SDS011;49000;50.698;13.322;2023-05-14T02:33:33;7.27;;;6.00;;
62903;SDS011;49000;50.698;13.322;2023-05-14T02:35:58;6.27;;;5.67;;
62903;SDS011;49000;50.698;13.322;2023-05-14T02:38:24;10.20;;;6.40;;
62903;SDS011;49000;50.698;13.322;2023-05-14T02:40:50;10.43;;;7.50;;
62903;SDS011;49000;50.698;13.322;2023-05-14T02:43:15;8.60;;;6.27;;
62903;SDS011;49000;50.698;13.322;2023-05-14T02:45:41;8.13;;;6.93;;
62903;SDS011;49000;50.698;13.322;2023-05-14T02:48:06;7.30;;;6.30;;
62903;SDS011;49000;50.698;13.322;2023-05-14T02:50:32;7.80;;;6.60;;
62903;SDS011;49000;50.698;13.322;2023-05-14T02:52:57;7.43;;;6.17;;
62903;SDS011;49000;50.698;13.322;2023-05-14T02:55:23;7.50;;;6.10;;
62903;SDS011;49000;50.698;13.322;2023-05-14T02:57:50;8.20;;;6.40;;
62903;SDS011;49000;50.698;13.322;2023-05-14T03:00:17;8.87;;;6.67;;
62903;SDS011;49000;50.698;13.322;2023-05-14T03:02:43;8.67;;;5.77;;
62903;SDS011;49000;50.698;13.322;2023-05-14T03:05:08;6.33;;;5.73;;
62903;SDS011;49000;50.698;13.322;2023-05-14T03:07:34;7.17;;;6.13;;
62903;SDS011;49000;50.698;13.322;2023-05-14T03:09:59;9.33;;;5.90;;
62903;SDS011;49000;50.698;13.322;2023-05-14T03:12:25;7.53;;;6.40;;
62903;SDS011;49000;50.698;13.322;2023-05-14T03:14:50;6.77;;;6.07;;
62903;SDS011;49000;50.698;13.322;2023-05-14T03:17:16;5.83;;;5.23;;
62903;SDS011;49000;50.698;13.322;2023-05-14T03:19:41;6.90;;;5.53;;
62903;SDS011;49000;50.698;13.322;2023-05-14T03:22:07;7.83;;;7.07;;
62903;SDS011;49000;50.698;13.322;2023-05-14T03:24:33;6.93;;;6.10;;
62903;SDS011;49000;50.698;13.322;2023-05-14T03:26:58;9.73;;;6.40;;
62903;SDS011;49000;50.698;13.322;2023-05-14T03:29:24;8.00;;;6.47;;
62903;SDS011;49000;50.698;13.322;2023-05-14T03:31:49;7.87;;;6.47;;
62903;SDS011;49000;50.698;13.322;2023-05-14T03:34:15;8.47;;;6.57;;
62903;SDS011;49000;50.698;13.322;2023-05-14T03:36:40;7.67;;;6.87;;
62903;SDS011;49000;50.698;13.322;2023-05-14T03:39:06;7.10;;;6.40;;
62903;SDS011;49000;50.698;13.322;2023-05-14T03:41:33;7.03;;;6.23;;
62903;SDS011;49000;50.698;13.322;2023-05-14T03:43:59;9.37;;;6.80;;
62903;SDS011;49000;50.698;13.322;2023-05-14T03:46:24;8.90;;;8.00;;
62903;SDS011;49000;50.698;13.322;2023-05-14T03:48:49;8.37;;;7.53;;
62903;SDS011;49000;50.698;13.322;2023-05-14T03:51:15;7.60;;;6.63;;
62903;SDS011;49000;50.698;13.322;2023-05-14T03:53:40;7.53;;;6.53;;
62903;SDS011;49000;50.698;13.322;2023-05-14T03:56:06;7.63;;;6.83;;
62903;SDS011;49000;50.698;13.322;2023-05-14T03:58:31;8.37;;;6.93;;
62903;SDS011;49000;50.698;13.322;2023-05-14T04:00:57;8.73;;;7.33;;
62903;SDS011;49000;50.698;13.322;2023-05-14T04:03:22;8.43;;;6.87;;
62903;SDS011;49000;50.698;13.322;2023-05-14T04:05:49;9.50;;;8.40;;
62903;SDS011;49000;50.698;13.322;2023-05-14T04:08:14;9.13;;;7.40;;
62903;SDS011;49000;50.698;13.322;2023-05-14T04:10:41;8.27;;;7.10;;
62903;SDS011;49000;50.698;13.322;2023-05-14T04:13:06;7.77;;;6.97;;
62903;SDS011;49000;50.698;13.322;2023-05-14T04:15:32;8.27;;;7.37;;
62903;SDS011;49000;50.698;13.322;2023-05-14T04:17:59;6.67;;;5.97;;
62903;SDS011;49000;50.698;13.322;2023-05-14T04:20:25;9.07;;;8.17;;
62903;SDS011;49000;50.698;13.322;2023-05-14T04:22:50;8.10;;;7.07;;
62903;SDS011;49000;50.698;13.322;2023-05-14T04:25:16;11.73;;;9.07;;
62903;SDS011;49000;50.698;13.322;2023-05-14T04:27:42;16.53;;;13.13;;
62903;SDS011;49000;50.698;13.322;2023-05-14T04:30:08;20.90;;;15.33;;
62903;SDS011;49000;50.698;13.322;2023-05-14T04:32:33;20.10;;;15.03;;
62903;SDS011;49000;50.698;13.322;2023-05-14T04:34:59;17.83;;;13.33;;
62903;SDS011;49000;50.698;13.322;2023-05-14T04:37:25;19.03;;;13.90;;
62903;SDS011;49000;50.698;13.322;2023-05-14T04:39:50;15.40;;;12.27;;
62903;SDS011;49000;50.698;13.322;2023-05-14T04:42:15;16.43;;;12.87;;
62903;SDS011;49000;50.698;13.322;2023-05-14T04:44:41;18.23;;;13.90;;
62903;SDS011;49000;50.698;13.322;2023-05-14T04:47:06;16.40;;;12.30;;
62903;SDS011;49000;50.698;13.322;2023-05-14T04:49:32;16.30;;;13.23;;
62903;SDS011;49000;50.698;13.322;2023-05-14T04:51:57;17.13;;;13.70;;
62903;SDS011;49000;50.698;13.322;2023-05-14T04:54:23;14.13;;;11.53;;
62903;SDS011;49000;50.698;13.322;2023-05-14T04:56:49;14.70;;;12.00;;
62903;SDS011;49000;50.698;13.322;2023-05-14T04:59:14;19.07;;;13.13;;
62903;SDS011;49000;50.698;13.322;2023-05-14T05:01:40;15.67;;;12.40;;
62903;SDS011;49000;50.698;13.322;2023-05-14T05:04:05;16.03;;;11.77;;
62903;SDS011;49000;50.698;13.322;2023-05-14T05:06:31;14.23;;;11.77;;
62903;SDS011;49000;50.698;13.322;2023-05-14T05:08:56;13.87;;;11.33;;
62903;SDS011;49000;50.698;13.322;2023-05-14T05:11:22;14.07;;;11.30;;
62903;SDS011;49000;50.698;13.322;2023-05-14T05:13:47;15.70;;;11.00;;
62903;SDS011;49000;50.698;13.322;2023-05-14T05:16:13;13.17;;;11.47;;
62903;SDS011;49000;50.698;13.322;2023-05-14T05:18:38;11.90;;;10.00;;
62903;SDS011;49000;50.698;13.322;2023-05-14T05:21:04;9.90;;;8.90;;
62903;SDS011;49000;50.698;13.322;2023-05-14T05:23:30;12.87;;;11.13;;
62903;SDS011;49000;50.698;13.322;2023-05-14T05:25:56;10.80;;;9.70;;
62903;SDS011;49000;50.698;13.322;2023-05-14T05:28:21;11.83;;;9.70;;
62903;SDS011;49000;50.698;13.322;2023-05-14T05:30:47;10.50;;;8.90;;
62903;SDS011;49000;50.698;13.322;2023-05-14T05:33:12;10.97;;;8.20;;
62903;SDS011;49000;50.698;13.322;2023-05-14T05:35:39;9.97;;;8.80;;
62903;SDS011;49000;50.698;13.322;2023-05-14T05:38:04;9.53;;;7.83;;
62903;SDS011;49000;50.698;13.322;2023-05-14T05:40:30;9.23;;;7.73;;
62903;SDS011;49000;50.698;13.322;2023-05-14T05:42:55;8.40;;;7.50;;
62903;SDS011;49000;50.698;13.322;2023-05-14T05:45:21;8.90;;;7.43;;
62903;SDS011;49000;50.698;13.322;2023-05-14T05:47:46;7.73;;;6.93;;
62903;SDS011;49000;50.698;13.322;2023-05-14T05:50:12;9.37;;;7.20;;
62903;SDS011;49000;50.698;13.322;2023-05-14T05:52:37;9.83;;;7.30;;
62903;SDS011;49000;50.698;13.322;2023-05-14T05:55:03;8.87;;;7.27;;
62903;SDS011;49000;50.698;13.322;2023-05-14T05:57:29;7.70;;;6.73;;
62903;SDS011;49000;50.698;13.322;2023-05-14T05:59:54;7.50;;;6.60;;
62903;SDS011;49000;50.698;13.322;2023-05-14T06:02:20;9.53;;;7.57;;
62903;SDS011;49000;50.698;13.322;2023-05-14T06:04:45;7.23;;;6.50;;
62903;SDS011;49000;50.698;13.322;2023-05-14T06:07:11;7.57;;;6.77;;
62903;SDS011;49000;50.698;13.322;2023-05-14T06:09:36;9.17;;;6.63;;
62903;SDS011;49000;50.698;13.322;2023-05-14T06:12:02;9.07;;;7.30;;
62903;SDS011;49000;50.698;13.322;2023-05-14T06:14:28;8.33;;;7.23;;
62903;SDS011;49000;50.698;13.322;2023-05-14T06:16:53;8.20;;;7.17;;
62903;SDS011;49000;50.698;13.322;2023-05-14T06:19:18;7.97;;;7.03;;
62903;SDS011;49000;50.698;13.322;2023-05-14T06:21:44;8.37;;;7.27;;
62903;SDS011;49000;50.698;13.322;2023-05-14T06:24:09;7.90;;;6.53;;
62903;SDS011;49000;50.698;13.322;2023-05-14T06:26:35;8.10;;;6.73;;
62903;SDS011;49000;50.698;13.322;2023-05-14T06:29:00;7.27;;;6.57;;
62903;SDS011;49000;50.698;13.322;2023-05-14T06:31:26;7.07;;;6.30;;
62903;SDS011;49000;50.698;13.322;2023-05-14T06:33:51;7.97;;;6.03;;
62903;SDS011;49000;50.698;13.322;2023-05-14T06:36:17;6.63;;;5.83;;
62903;SDS011;49000;50.698;13.322;2023-05-14T06:38:42;6.80;;;6.10;;
62903;SDS011;49000;50.698;13.322;2023-05-14T06:41:08;7.77;;;6.63;;
62903;SDS011;49000;50.698;13.322;2023-05-14T06:43:33;8.13;;;7.03;;
62903;SDS011;49000;50.698;13.322;2023-05-14T06:45:59;7.80;;;6.57;;
62903;SDS011;49000;50.698;13.322;2023-05-14T06:48:25;6.67;;;5.97;;
62903;SDS011;49000;50.698;13.322;2023-05-14T06:50:53;6.67;;;6.00;;
62903;SDS011;49000;50.698;13.322;2023-05-14T06:53:18;8.07;;;6.50;;
62903;SDS011;49000;50.698;13.322;2023-05-14T06:55:45;9.30;;;6.87;;
62903;SDS011;49000;50.698;13.322;2023-05-14T06:58:12;9.83;;;7.17;;
62903;SDS011;49000;50.698;13.322;2023-05-14T07:00:37;7.93;;;6.73;;
62903;SDS011;49000;50.698;13.322;2023-05-14T07:03:04;7.77;;;7.00;;
62903;SDS011;49000;50.698;13.322;2023-05-14T07:05:29;7.97;;;6.93;;
62903;SDS011;49000;50.698;13.322;2023-05-14T07:07:55;8.20;;;6.63;;
62903;SDS011;49000;50.698;13.322;2023-05-14T07:10:21;8.10;;;7.30;;
62903;SDS011;49000;50.698;13.322;2023-05-14T07:12:46;8.23;;;6.80;;
62903;SDS011;49000;50.698;13.322;2023-05-14T07:15:12;7.80;;;7.00;;
62903;SDS011;49000;50.698;13.322;2023-05-14T07:17:37;7.60;;;6.80;;
62903;SDS011;49000;50.698;13.322;2023-05-14T07:20:03;9.37;;;6.70;;
62903;SDS011;49000;50.698;13.322;2023-05-14T07:22:29;9.23;;;6.97;;
62903;SDS011;49000;50.698;13.322;2023-05-14T07:24:55;8.70;;;7.70;;
62903;SDS011;49000;50.698;13.322;2023-05-14T07:27:20;7.90;;;7.10;;
62903;SDS011;49000;50.698;13.322;2023-05-14T07:29:46;8.73;;;7.83;;
62903;SDS011;49000;50.698;13.322;2023-05-14T07:32:11;10.80;;;7.70;;
62903;SDS011;49000;50.698;13.322;2023-05-14T07:34:36;8.20;;;7.27;;
62903;SDS011;49000;50.698;13.322;2023-05-14T07:37:02;8.30;;;7.50;;
62903;SDS011;49000;50.698;13.322;2023-05-14T07:39:28;7.63;;;6.73;;
62903;SDS011;49000;50.698;13.322;2023-05-14T07:41:53;8.43;;;7.30;;
62903;SDS011;49000;50.698;13.322;2023-05-14T07:44:19;8.97;;;8.00;;
62903;SDS011;49000;50.698;13.322;2023-05-14T07:46:45;9.07;;;8.17;;
62903;SDS011;49000;50.698;13.322;2023-05-14T07:49:11;9.37;;;8.47;;
62903;SDS011;49000;50.698;13.322;2023-05-14T07:51:36;8.07;;;7.27;;
62903;SDS011;49000;50.698;13.322;2023-05-14T07:54:02;7.80;;;7.07;;
62903;SDS011;49000;50.698;13.322;2023-05-14T07:56:27;7.93;;;7.00;;
62903;SDS011;49000;50.698;13.322;2023-05-14T07:58:53;7.43;;;6.07;;
62903;SDS011;49000;50.698;13.322;2023-05-14T08:01:18;6.90;;;6.20;;
62903;SDS011;49000;50.698;13.322;2023-05-14T08:03:44;6.90;;;6.20;;
62903;SDS011;49000;50.698;13.322;2023-05-14T08:06:10;7.17;;;6.47;;
62903;SDS011;49000;50.698;13.322;2023-05-14T08:08:35;7.33;;;6.63;;
62903;SDS011;49000;50.698;13.322;2023-05-14T08:11:01;6.15;;;5.55;;
62903;SDS011;49000;50.698;13.322;2023-05-14T08:13:27;6.90;;;5.93;;
62903;SDS011;49000;50.698;13.322;2023-05-14T08:15:52;6.30;;;5.70;;
62903;SDS011;49000;50.698;13.322;2023-05-14T08:18:18;6.72;;;6.03;;
62903;SDS011;49000;50.698;13.322;2023-05-14T08:20:43;7.63;;;6.83;;
62903;SDS011;49000;50.698;13.322;2023-05-14T08:23:09;7.53;;;6.60;;
62903;SDS011;49000;50.698;13.322;2023-05-14T08:25:34;8.63;;;7.00;;
62903;SDS011;49000;50.698;13.322;2023-05-14T08:28:00;8.65;;;7.78;;
62903;SDS011;49000;50.698;13.322;2023-05-14T08:30:26;7.05;;;6.45;;
62903;SDS011;49000;50.698;13.322;2023-05-14T08:32:51;9.20;;;8.27;;
62903;SDS011;49000;50.698;13.322;2023-05-14T08:35:17;8.38;;;7.57;;
62903;SDS011;49000;50.698;13.322;2023-05-14T08:37:43;8.20;;;7.40;;
62903;SDS011;49000;50.698;13.322;2023-05-14T08:40:09;7.23;;;6.50;;
62903;SDS011;49000;50.698;13.322;2023-05-14T08:42:35;7.43;;;6.63;;
62903;SDS011;49000;50.698;13.322;2023-05-14T08:45:04;9.80;;;6.55;;
62903;SDS011;49000;50.698;13.322;2023-05-14T08:47:35;7.15;;;6.45;;
62903;SDS011;49000;50.698;13.322;2023-05-14T08:50:03;7.70;;;7.00;;
62903;SDS011;49000;50.698;13.322;2023-05-14T08:52:30;8.27;;;7.47;;
62903;SDS011;49000;50.698;13.322;2023-05-14T08:54:58;8.63;;;7.73;;
62903;SDS011;49000;50.698;13.322;2023-05-14T08:57:25;9.13;;;6.87;;
62903;SDS011;49000;50.698;13.322;2023-05-14T08:59:52;9.57;;;7.57;;
62903;SDS011;49000;50.698;13.322;2023-05-14T09:02:19;8.57;;;7.67;;
62903;SDS011;49000;50.698;13.322;2023-05-14T09:04:47;9.23;;;8.33;;
62903;SDS011;49000;50.698;13.322;2023-05-14T09:07:22;8.47;;;7.40;;
62903;SDS011;49000;50.698;13.322;2023-05-14T09:09:48;9.00;;;8.10;;
62903;SDS011;49000;50.698;13.322;2023-05-14T09:12:13;6.80;;;6.20;;
62903;SDS011;49000;50.698;13.322;2023-05-14T09:14:39;7.13;;;6.43;;
62903;SDS011;49000;50.698;13.322;2023-05-14T09:17:05;8.00;;;7.20;;
62903;SDS011;49000;50.698;13.322;2023-05-14T09:19:31;7.53;;;6.83;;
62903;SDS011;49000;50.698;13.322;2023-05-14T09:21:57;7.33;;;6.53;;
62903;SDS011;49000;50.698;13.322;2023-05-14T09:24:26;7.30;;;6.43;;
62903;SDS011;49000;50.698;13.322;2023-05-14T09:26:56;7.47;;;6.53;;
62903;SDS011;49000;50.698;13.322;2023-05-14T09:29:25;7.40;;;6.00;;
62903;SDS011;49000;50.698;13.322;2023-05-14T09:31:53;7.30;;;5.27;;
62903;SDS011;49000;50.698;13.322;2023-05-14T09:34:23;10.43;;;7.07;;
62903;SDS011;49000;50.698;13.322;2023-05-14T09:36:53;8.87;;;6.73;;
62903;SDS011;49000;50.698;13.322;2023-05-14T09:39:21;7.27;;;6.60;;
62903;SDS011;49000;50.698;13.322;2023-05-14T09:41:48;6.23;;;5.67;;
62903;SDS011;49000;50.698;13.322;2023-05-14T09:44:15;5.50;;;5.00;;
62903;SDS011;49000;50.698;13.322;2023-05-14T09:46:41;7.60;;;6.73;;
62903;SDS011;49000;50.698;13.322;2023-05-14T09:49:06;6.50;;;5.67;;
62903;SDS011;49000;50.698;13.322;2023-05-14T09:51:32;5.80;;;5.30;;
62903;SDS011;49000;50.698;13.322;2023-05-14T09:53:57;5.83;;;5.33;;
62903;SDS011;49000;50.698;13.322;2023-05-14T09:56:24;6.43;;;5.80;;
62903;SDS011;49000;50.698;13.322;2023-05-14T09:58:50;7.50;;;5.93;;
62903;SDS011;49000;50.698;13.322;2023-05-14T10:01:15;6.37;;;5.77;;
62903;SDS011;49000;50.698;13.322;2023-05-14T10:03:43;6.20;;;5.50;;
62903;SDS011;49000;50.698;13.322;2023-05-14T10:06:09;8.30;;;6.40;;
62903;SDS011;49000;50.698;13.322;2023-05-14T10:08:37;6.87;;;6.20;;
62903;SDS011;49000;50.698;13.322;2023-05-14T10:11:17;7.50;;;6.67;;
62903;SDS011;49000;50.698;13.322;2023-05-14T10:13:52;7.63;;;6.93;;
62903;SDS011;49000;50.698;13.322;2023-05-14T10:16:27;8.10;;;7.30;;
62903;SDS011;49000;50.698;13.322;2023-05-14T10:18:55;7.30;;;6.60;;
62903;SDS011;49000;50.698;13.322;2023-05-14T10:21:26;6.83;;;6.20;;
62903;SDS011;49000;50.698;13.322;2023-05-14T10:23:55;6.40;;;5.80;;
62903;SDS011;49000;50.698;13.322;2023-05-14T10:26:21;5.20;;;4.78;;
62903;SDS011;49000;50.698;13.322;2023-05-14T10:28:47;5.00;;;4.60;;
62903;SDS011;49000;50.698;13.322;2023-05-14T10:31:12;5.00;;;4.50;;
62903;SDS011;49000;50.698;13.322;2023-05-14T10:33:47;4.30;;;3.90;;
62903;SDS011;49000;50.698;13.322;2023-05-14T10:36:14;5.25;;;4.70;;
62903;SDS011;49000;50.698;13.322;2023-05-14T10:38:44;4.20;;;3.90;;
62903;SDS011;49000;50.698;13.322;2023-05-14T10:41:11;4.85;;;4.40;;
62903;SDS011;49000;50.698;13.322;2023-05-14T10:43:40;4.88;;;4.40;;
62903;SDS011;49000;50.698;13.322;2023-05-14T10:46:06;4.25;;;3.88;;
62903;SDS011;49000;50.698;13.322;2023-05-14T10:48:33;4.50;;;4.10;;
62903;SDS011;49000;50.698;13.322;2023-05-14T10:51:00;5.18;;;4.60;;
62903;SDS011;49000;50.698;13.322;2023-05-14T10:53:33;4.78;;;4.38;;
62903;SDS011;49000;50.698;13.322;2023-05-14T10:56:04;4.45;;;4.05;;
62903;SDS011;49000;50.698;13.322;2023-05-14T10:58:31;3.55;;;3.25;;
62903;SDS011;49000;50.698;13.322;2023-05-14T11:01:00;3.88;;;2.92;;
62903;SDS011;49000;50.698;13.322;2023-05-14T11:03:29;3.45;;;3.17;;
62903;SDS011;49000;50.698;13.322;2023-05-14T11:05:55;3.80;;;3.50;;
62903;SDS011;49000;50.698;13.322;2023-05-14T11:08:21;4.15;;;3.75;;
62903;SDS011;49000;50.698;13.322;2023-05-14T11:10:49;4.47;;;4.00;;
62903;SDS011;49000;50.698;13.322;2023-05-14T11:13:14;4.55;;;4.15;;
62903;SDS011;49000;50.698;13.322;2023-05-14T11:15:42;4.28;;;3.88;;
62903;SDS011;49000;50.698;13.322;2023-05-14T11:18:12;4.10;;;3.55;;
62903;SDS011;49000;50.698;13.322;2023-05-14T11:20:37;4.15;;;3.80;;
62903;SDS011;49000;50.698;13.322;2023-05-14T11:23:03;4.15;;;3.72;;
62903;SDS011;49000;50.698;13.322;2023-05-14T11:25:28;4.63;;;4.00;;
62903;SDS011;49000;50.698;13.322;2023-05-14T11:27:54;4.00;;;3.70;;
62903;SDS011;49000;50.698;13.322;2023-05-14T11:30:22;4.35;;;3.63;;
62903;SDS011;49000;50.698;13.322;2023-05-14T11:32:48;4.85;;;4.40;;
62903;SDS011;49000;50.698;13.322;2023-05-14T11:35:14;4.68;;;4.10;;
62903;SDS011;49000;50.698;13.322;2023-05-14T11:37:40;4.68;;;3.65;;
62903;SDS011;49000;50.698;13.322;2023-05-14T11:40:07;3.60;;;3.30;;
62903;SDS011;49000;50.698;13.322;2023-05-14T11:42:38;3.38;;;3.08;;
62903;SDS011;49000;50.698;13.322;2023-05-14T11:45:04;3.20;;;2.92;;
62903;SDS011;49000;50.698;13.322;2023-05-14T11:47:30;5.95;;;3.60;;
62903;SDS011;49000;50.698;13.322;2023-05-14T11:49:56;4.22;;;3.42;;
62903;SDS011;49000;50.698;13.322;2023-05-14T11:52:22;3.33;;;3.03;;
62903;SDS011;49000;50.698;13.322;2023-05-14T11:54:48;3.20;;;2.90;;
62903;SDS011;49000;50.698;13.322;2023-05-14T11:57:15;4.00;;;3.70;;
62903;SDS011;49000;50.698;13.322;2023-05-14T11:59:43;3.65;;;3.35;;
62903;SDS011;49000;50.698;13.322;2023-05-14T12:02:09;3.72;;;3.33;;
62903;SDS011;49000;50.698;13.322;2023-05-14T12:04:36;4.28;;;3.30;;
62903;SDS011;49000;50.698;13.322;2023-05-14T12:07:09;4.10;;;3.80;;
62903;SDS011;49000;50.698;13.322;2023-05-14T12:09:37;3.50;;;3.20;;
62903;SDS011;49000;50.698;13.322;2023-05-14T12:12:10;3.00;;;2.80;;
62903;SDS011;49000;50.698;13.322;2023-05-14T12:14:40;6.82;;;6.13;;
62903;SDS011;49000;50.698;13.322;2023-05-14T12:17:16;4.88;;;4.38;;
62903;SDS011;49000;50.698;13.322;2023-05-14T12:19:52;5.63;;;5.05;;
62903;SDS011;49000;50.698;13.322;2023-05-14T12:22:19;3.53;;;3.22;;
62903;SDS011;49000;50.698;13.322;2023-05-14T12:24:55;5.32;;;2.97;;
62903;SDS011;49000;50.698;13.322;2023-05-14T12:27:22;3.35;;;3.05;;
62903;SDS011;49000;50.698;13.322;2023-05-14T12:29:49;3.58;;;2.80;;
62903;SDS011;49000;50.698;13.322;2023-05-14T12:32:23;5.05;;;3.58;;
62903;SDS011;49000;50.698;13.322;2023-05-14T12:34:49;3.35;;;3.05;;
62903;SDS011;49000;50.698;13.322;2023-05-14T12:37:15;3.17;;;2.97;;
62903;SDS011;49000;50.698;13.322;2023-05-14T12:39:42;3.40;;;3.10;;
62903;SDS011;49000;50.698;13.322;2023-05-14T12:42:07;3.60;;;2.90;;
62903;SDS011;49000;50.698;13.322;2023-05-14T12:44:33;4.07;;;3.08;;
62903;SDS011;49000;50.698;13.322;2023-05-14T12:46:58;3.38;;;3.08;;
62903;SDS011;49000;50.698;13.322;2023-05-14T12:49:24;6.00;;;3.30;;
62903;SDS011;49000;50.698;13.322;2023-05-14T12:51:49;3.30;;;3.00;;
62903;SDS011;49000;50.698;13.322;2023-05-14T12:54:15;3.47;;;3.05;;
62903;SDS011;49000;50.698;13.322;2023-05-14T12:56:41;4.00;;;3.60;;
62903;SDS011;49000;50.698;13.322;2023-05-14T12:59:06;5.15;;;3.53;;
62903;SDS011;49000;50.698;13.322;2023-05-14T13:01:33;3.63;;;3.33;;
62903;SDS011;49000;50.698;13.322;2023-05-14T13:03:58;5.65;;;3.10;;
62903;SDS011;49000;50.698;13.322;2023-05-14T13:06:24;3.97;;;3.58;;
62903;SDS011;49000;50.698;13.322;2023-05-14T13:08:49;4.40;;;4.00;;
62903;SDS011;49000;50.698;13.322;2023-05-14T13:11:15;4.37;;;3.97;;
62903;SDS011;49000;50.698;13.322;2023-05-14T13:13:40;3.97;;;3.67;;
62903;SDS011;49000;50.698;13.322;2023-05-14T13:16:06;3.87;;;3.40;;
62903;SDS011;49000;50.698;13.322;2023-05-14T13:18:31;3.90;;;3.20;;
62903;SDS011;49000;50.698;13.322;2023-05-14T13:20:57;3.30;;;3.00;;
62903;SDS011;49000;50.698;13.322;2023-05-14T13:23:22;3.70;;;3.30;;
62903;SDS011;49000;50.698;13.322;2023-05-14T13:25:48;5.10;;;3.70;;
62903;SDS011;49000;50.698;13.322;2023-05-14T13:28:13;5.03;;;3.87;;
62903;SDS011;49000;50.698;13.322;2023-05-14T13:30:39;3.57;;;3.27;;
62903;SDS011;49000;50.698;13.322;2023-05-14T13:33:04;3.93;;;3.50;;
62903;SDS011;49000;50.698;13.322;2023-05-14T13:35:30;3.50;;;3.20;;
62903;SDS011;49000;50.698;13.322;2023-05-14T13:37:55;4.77;;;3.80;;
62903;SDS011;49000;50.698;13.322;2023-05-14T13:40:21;3.73;;;3.43;;
62903;SDS011;49000;50.698;13.322;2023-05-14T13:42:46;4.00;;;3.60;;
62903;SDS011;49000;50.698;13.322;2023-05-14T13:45:12;3.83;;;3.53;;
62903;SDS011;49000;50.698;13.322;2023-05-14T13:47:37;4.63;;;3.73;;
62903;SDS011;49000;50.698;13.322;2023-05-14T13:50:03;4.27;;;3.40;;
62903;SDS011;49000;50.698;13.322;2023-05-14T13:52:29;3.10;;;2.83;;
62903;SDS011;49000;50.698;13.322;2023-05-14T13:54:54;3.83;;;2.90;;
62903;SDS011;49000;50.698;13.322;2023-05-14T13:57:20;3.03;;;2.73;;
62903;SDS011;49000;50.698;13.322;2023-05-14T13:59:46;3.70;;;3.30;;
62903;SDS011;49000;50.698;13.322;2023-05-14T14:02:12;3.80;;;3.07;;
62903;SDS011;49000;50.698;13.322;2023-05-14T14:04:38;3.57;;;3.27;;
62903;SDS011;49000;50.698;13.322;2023-05-14T14:07:03;6.47;;;3.47;;
62903;SDS011;49000;50.698;13.322;2023-05-14T14:09:29;4.20;;;3.80;;
62903;SDS011;49000;50.698;13.322;2023-05-14T14:11:59;4.43;;;3.20;;
62903;SDS011;49000;50.698;13.322;2023-05-14T14:14:25;3.60;;;2.70;;
62903;SDS011;49000;50.698;13.322;2023-05-14T14:16:51;2.50;;;2.30;;
62903;SDS011;49000;50.698;13.322;2023-05-14T14:19:16;3.30;;;2.50;;
62903;SDS011;49000;50.698;13.322;2023-05-14T14:21:42;2.53;;;2.20;;
62903;SDS011;49000;50.698;13.322;2023-05-14T14:24:07;3.53;;;1.90;;
62903;SDS011;49000;50.698;13.322;2023-05-14T14:26:33;3.15;;;2.00;;
62903;SDS011;49000;50.698;13.322;2023-05-14T14:28:58;3.47;;;2.20;;
62903;SDS011;49000;50.698;13.322;2023-05-14T14:31:23;2.00;;;1.77;;
62903;SDS011;49000;50.698;13.322;2023-05-14T14:33:49;3.10;;;2.22;;
62903;SDS011;49000;50.698;13.322;2023-05-14T14:36:14;2.10;;;1.85;;